Main page
METAR-TAF:

METAR-TAF

Airports :

Niamtougou, Togo

Niamtougou International Airport

latitude: 09-46N, longitude: 001-06E, elevation: 342 m

Current weather observation

The report was made 1 hour and 53 minutes ago, at 09:00 UTC
Wind 6 kt from the East/Southeast, varying between East and Southeast
Temperature 29°C
Humidity 15%
Pressure 1015 hPa
Visibility: 7000 m

METAR: DXNG 180900Z 11006KT 080V140 7000 NSC 29/M00 Q1015 NOSIG

Time: 10:53 (10:53 UTC)

Forecast

The report was made 5 hours and 53 minutes ago, at 05:00 UTC
Forecast valid from 18 at 06 UTC to 19 at 06 UTC
Wind 8 kt from the East/Northeast
Visibility: 8000 m

TAF: DXNG 180500Z 1806/1906 06008KT 8000 NSC

Weather observations and forecasts of more than 4000 airports (METAR and TAF reports).

The available stations are represented by yellow and red dots on the map.

Hover mouse over dot to see the name of the station.

Then click to see weather observations and forecasts.

To change the map : click on the green buttons with a black cross to zoom in, on the green button with a dash to zoom out, or on the green arrows for adjacent maps.


METAR-TAF: